sensor_id;sensor_type;location;lat;lon;timestamp;pressure;altitude;pressure_sealevel;temperature;humidity
46199;BME280;31928;52.104;10.030;2022-10-16T00:00:09;100057.19;;;20.13;53.67
46199;BME280;31928;52.104;10.030;2022-10-16T00:02:36;100053.63;;;20.13;53.59
46199;BME280;31928;52.104;10.030;2022-10-16T00:05:02;100056.38;;;20.13;53.96
46199;BME280;31928;52.104;10.030;2022-10-16T00:07:29;100066.16;;;20.14;53.57
46199;BME280;31928;52.104;10.030;2022-10-16T00:09:55;100068.88;;;20.14;53.66
46199;BME280;31928;52.104;10.030;2022-10-16T00:12:22;100065.06;;;20.15;54.12
46199;BME280;31928;52.104;10.030;2022-10-16T00:14:49;100071.03;;;20.17;53.75
46199;BME280;31928;52.104;10.030;2022-10-16T00:17:15;100073.75;;;20.17;54.03
46199;BME280;31928;52.104;10.030;2022-10-16T00:19:42;100080.84;;;20.18;53.70
46199;BME280;31928;52.104;10.030;2022-10-16T00:22:08;100071.31;;;20.15;53.91
46199;BME280;31928;52.104;10.030;2022-10-16T00:24:36;100069.44;;;20.16;53.84
46199;BME280;31928;52.104;10.030;2022-10-16T00:27:02;100085.75;;;20.16;53.69
46199;BME280;31928;52.104;10.030;2022-10-16T00:29:28;100090.38;;;20.15;54.16
46199;BME280;31928;52.104;10.030;2022-10-16T00:31:55;100081.41;;;20.15;53.82
46199;BME280;31928;52.104;10.030;2022-10-16T00:34:21;100083.56;;;20.18;53.84
46199;BME280;31928;52.104;10.030;2022-10-16T00:36:48;100093.66;;;20.17;54.00
46199;BME280;31928;52.104;10.030;2022-10-16T00:39:14;100097.16;;;20.18;54.18
46199;BME280;31928;52.104;10.030;2022-10-16T00:41:41;100105.88;;;20.20;53.59
46199;BME280;31928;52.104;10.030;2022-10-16T00:46:52;100096.38;;;20.17;53.57
46199;BME280;31928;52.104;10.030;2022-10-16T00:49:19;100091.22;;;20.16;53.57
46199;BME280;31928;52.104;10.030;2022-10-16T00:51:47;100104.28;;;20.14;53.57
46199;BME280;31928;52.104;10.030;2022-10-16T00:54:24;100113.53;;;20.13;53.73
46199;BME280;31928;52.104;10.030;2022-10-16T00:56:52;100108.09;;;20.13;53.40
46199;BME280;31928;52.104;10.030;2022-10-16T00:59:24;100093.97;;;20.11;53.43
46199;BME280;31928;52.104;10.030;2022-10-16T01:01:51;100110.28;;;20.11;53.97
46199;BME280;31928;52.104;10.030;2022-10-16T01:04:18;100113.25;;;20.09;53.93
46199;BME280;31928;52.104;10.030;2022-10-16T01:09:35;100112.47;;;20.09;53.71
46199;BME280;31928;52.104;10.030;2022-10-16T01:12:06;100102.38;;;20.09;53.78
46199;BME280;31928;52.104;10.030;2022-10-16T01:14:40;100108.66;;;20.10;53.55
46199;BME280;31928;52.104;10.030;2022-10-16T01:17:11;100112.47;;;20.09;53.65
46199;BME280;31928;52.104;10.030;2022-10-16T01:22:24;100101.56;;;20.09;53.65
46199;BME280;31928;52.104;10.030;2022-10-16T01:24:51;100098.56;;;20.10;53.71
46199;BME280;31928;52.104;10.030;2022-10-16T01:27:27;100100.50;;;20.10;53.59
46199;BME280;31928;52.104;10.030;2022-10-16T01:34:56;100112.47;;;20.09;53.74
46199;BME280;31928;52.104;10.030;2022-10-16T01:37:35;100103.78;;;20.07;53.85
46199;BME280;31928;52.104;10.030;2022-10-16T01:40:05;100116.56;;;20.06;53.59
46199;BME280;31928;52.104;10.030;2022-10-16T01:42:36;100120.66;;;20.04;53.62
46199;BME280;31928;52.104;10.030;2022-10-16T01:45:06;100109.25;;;20.02;53.28
46199;BME280;31928;52.104;10.030;2022-10-16T01:47:34;100122.03;;;20.01;53.31
46199;BME280;31928;52.104;10.030;2022-10-16T01:50:02;100122.31;;;20.00;53.64
46199;BME280;31928;52.104;10.030;2022-10-16T01:52:31;100126.41;;;19.97;53.59
46199;BME280;31928;52.104;10.030;2022-10-16T01:54:59;100117.44;;;19.97;53.92
46199;BME280;31928;52.104;10.030;2022-10-16T01:57:28;100117.44;;;19.97;53.77
46199;BME280;31928;52.104;10.030;2022-10-16T01:59:56;100124.75;;;19.96;54.09
46199;BME280;31928;52.104;10.030;2022-10-16T02:02:24;100126.41;;;19.97;54.00
46199;BME280;31928;52.104;10.030;2022-10-16T02:04:54;100129.97;;;19.98;53.67
46199;BME280;31928;52.104;10.030;2022-10-16T02:07:24;100137.00;;;19.99;53.90
46199;BME280;31928;52.104;10.030;2022-10-16T02:09:50;100137.00;;;19.99;54.14
46199;BME280;31928;52.104;10.030;2022-10-16T02:14:53;100148.44;;;20.01;53.68
46199;BME280;31928;52.104;10.030;2022-10-16T02:17:19;100149.25;;;20.01;53.80
46199;BME280;31928;52.104;10.030;2022-10-16T02:19:47;100150.06;;;20.02;53.48
46199;BME280;31928;52.104;10.030;2022-10-16T02:22:16;100153.88;;;20.01;53.58
46199;BME280;31928;52.104;10.030;2022-10-16T02:30:24;100160.44;;;19.95;53.40
46199;BME280;31928;52.104;10.030;2022-10-16T02:32:48;100168.88;;;19.93;53.58
46199;BME280;31928;52.104;10.030;2022-10-16T02:35:16;100163.72;;;19.92;53.37
46199;BME280;31928;52.104;10.030;2022-10-16T02:37:43;100157.69;;;19.90;53.49
46199;BME280;31928;52.104;10.030;2022-10-16T02:40:10;100165.34;;;19.88;53.08
46199;BME280;31928;52.104;10.030;2022-10-16T02:42:38;100158.81;;;19.84;53.04
46199;BME280;31928;52.104;10.030;2022-10-16T02:45:06;100155.03;;;19.80;53.41
46199;BME280;31928;52.104;10.030;2022-10-16T02:47:33;100158.28;;;19.77;53.22
46199;BME280;31928;52.104;10.030;2022-10-16T02:49:59;100156.94;;;19.75;53.09
46199;BME280;31928;52.104;10.030;2022-10-16T02:52:26;100150.13;;;19.72;53.47
46199;BME280;31928;52.104;10.030;2022-10-16T02:54:53;100150.69;;;19.69;53.30
46199;BME280;31928;52.104;10.030;2022-10-16T02:57:19;100152.91;;;19.67;53.54
46199;BME280;31928;52.104;10.030;2022-10-16T02:59:46;100157.25;;;19.63;53.31
46199;BME280;31928;52.104;10.030;2022-10-16T03:02:12;100153.19;;;19.61;52.86
46199;BME280;31928;52.104;10.030;2022-10-16T03:04:39;100151.28;;;19.56;53.41
46199;BME280;31928;52.104;10.030;2022-10-16T03:07:05;100150.22;;;19.52;53.13
46199;BME280;31928;52.104;10.030;2022-10-16T03:09:31;100144.50;;;19.49;53.14
46199;BME280;31928;52.104;10.030;2022-10-16T03:11:58;100145.84;;;19.46;53.09
46199;BME280;31928;52.104;10.030;2022-10-16T03:14:24;100137.19;;;19.44;53.23
46199;BME280;31928;52.104;10.030;2022-10-16T03:16:51;100132.31;;;19.41;53.32
46199;BME280;31928;52.104;10.030;2022-10-16T03:19:17;100132.84;;;19.38;53.57
46199;BME280;31928;52.104;10.030;2022-10-16T03:21:44;100128.75;;;19.36;53.37
46199;BME280;31928;52.104;10.030;2022-10-16T03:24:11;100129.31;;;19.33;53.35
46199;BME280;31928;52.104;10.030;2022-10-16T03:26:37;100147.78;;;19.31;53.57
46199;BME280;31928;52.104;10.030;2022-10-16T03:29:03;100144.28;;;19.30;54.12
46199;BME280;31928;52.104;10.030;2022-10-16T03:31:30;100144.28;;;19.30;54.31
46199;BME280;31928;52.104;10.030;2022-10-16T03:33:56;100141.56;;;19.30;54.27
46199;BME280;31928;52.104;10.030;2022-10-16T03:36:23;100152.16;;;19.32;54.29
46199;BME280;31928;52.104;10.030;2022-10-16T03:38:49;100146.44;;;19.33;54.18
46199;BME280;31928;52.104;10.030;2022-10-16T03:41:15;100145.34;;;19.34;53.84
46199;BME280;31928;52.104;10.030;2022-10-16T03:43:42;100146.16;;;19.35;54.13
46199;BME280;31928;52.104;10.030;2022-10-16T03:46:08;100148.63;;;19.36;53.72
46199;BME280;31928;52.104;10.030;2022-10-16T03:48:35;100162.22;;;19.36;53.60
46199;BME280;31928;52.104;10.030;2022-10-16T03:51:01;100156.78;;;19.36;53.84
46199;BME280;31928;52.104;10.030;2022-10-16T03:53:27;100157.88;;;19.35;53.66
46199;BME280;31928;52.104;10.030;2022-10-16T03:55:54;100168.75;;;19.35;53.82
46199;BME280;31928;52.104;10.030;2022-10-16T03:58:20;100164.38;;;19.34;54.06
46199;BME280;31928;52.104;10.030;2022-10-16T04:00:46;100165.75;;;19.32;54.26
46199;BME280;31928;52.104;10.030;2022-10-16T04:03:16;100173.63;;;19.33;53.76
46199;BME280;31928;52.104;10.030;2022-10-16T04:05:43;100170.09;;;19.33;53.50
46199;BME280;31928;52.104;10.030;2022-10-16T04:08:09;100175.81;;;19.31;53.84
46199;BME280;31928;52.104;10.030;2022-10-16T04:10:36;100167.09;;;19.29;53.61
46199;BME280;31928;52.104;10.030;2022-10-16T04:13:02;100155.16;;;19.26;53.73
46199;BME280;31928;52.104;10.030;2022-10-16T04:15:29;100155.16;;;19.26;53.88
46199;BME280;31928;52.104;10.030;2022-10-16T04:17:55;100145.91;;;19.22;53.94
46199;BME280;31928;52.104;10.030;2022-10-16T04:20:21;100167.09;;;19.20;53.90
46199;BME280;31928;52.104;10.030;2022-10-16T04:22:48;100175.53;;;19.18;53.96
46199;BME280;31928;52.104;10.030;2022-10-16T04:25:14;100180.16;;;19.18;53.92
46199;BME280;31928;52.104;10.030;2022-10-16T04:27:40;100184.81;;;19.17;54.16
46199;BME280;31928;52.104;10.030;2022-10-16T04:30:11;100187.53;;;19.17;54.02
46199;BME280;31928;52.104;10.030;2022-10-16T04:32:37;100187.25;;;19.19;54.28
46199;BME280;31928;52.104;10.030;2022-10-16T04:35:04;100184.81;;;19.17;54.03
46199;BME280;31928;52.104;10.030;2022-10-16T04:37:30;100186.69;;;19.17;54.11
46199;BME280;31928;52.104;10.030;2022-10-16T04:39:56;100185.06;;;19.16;54.15
46199;BME280;31928;52.104;10.030;2022-10-16T04:42:23;100179.91;;;19.14;53.85
46199;BME280;31928;52.104;10.030;2022-10-16T04:44:49;100175.53;;;19.13;54.10
46199;BME280;31928;52.104;10.030;2022-10-16T04:47:16;100181.25;;;19.12;54.23
46199;BME280;31928;52.104;10.030;2022-10-16T04:49:42;100178.53;;;19.12;54.03
46199;BME280;31928;52.104;10.030;2022-10-16T04:52:08;100180.72;;;19.10;54.32
46199;BME280;31928;52.104;10.030;2022-10-16T04:54:35;100184.53;;;19.09;54.08
46199;BME280;31928;52.104;10.030;2022-10-16T04:57:02;100178.00;;;19.10;54.21
46199;BME280;31928;52.104;10.030;2022-10-16T04:59:28;100189.69;;;19.10;54.34
46199;BME280;31928;52.104;10.030;2022-10-16T05:01:54;100188.88;;;19.10;54.27
46199;BME280;31928;52.104;10.030;2022-10-16T05:04:21;100181.53;;;19.10;54.21
46199;BME280;31928;52.104;10.030;2022-10-16T05:06:47;100180.16;;;19.08;54.76
46199;BME280;31928;52.104;10.030;2022-10-16T05:09:14;100197.31;;;19.08;54.95
46199;BME280;31928;52.104;10.030;2022-10-16T05:11:40;100208.19;;;19.08;54.82
46199;BME280;31928;52.104;10.030;2022-10-16T05:14:06;100205.19;;;19.10;54.28
46199;BME280;31928;52.104;10.030;2022-10-16T05:16:33;100197.03;;;19.10;54.36
46199;BME280;31928;52.104;10.030;2022-10-16T05:18:59;100201.91;;;19.08;54.32
46199;BME280;31928;52.104;10.030;2022-10-16T05:21:46;100206.25;;;19.09;54.24
46199;BME280;31928;52.104;10.030;2022-10-16T05:24:12;100194.84;;;19.07;54.48
46199;BME280;31928;52.104;10.030;2022-10-16T05:26:38;100200.81;;;19.09;54.81
46199;BME280;31928;52.104;10.030;2022-10-16T05:29:05;100198.09;;;19.09;54.36
46199;BME280;31928;52.104;10.030;2022-10-16T05:31:31;100204.34;;;19.09;54.71
46199;BME280;31928;52.104;10.030;2022-10-16T05:34:01;100216.84;;;19.10;54.71
46199;BME280;31928;52.104;10.030;2022-10-16T05:36:27;100230.16;;;19.12;54.58
46199;BME280;31928;52.104;10.030;2022-10-16T05:38:54;100224.72;;;19.12;54.62
46199;BME280;31928;52.104;10.030;2022-10-16T05:41:20;100234.53;;;19.13;54.57
46199;BME280;31928;52.104;10.030;2022-10-16T05:43:48;100242.69;;;19.13;54.19
46199;BME280;31928;52.104;10.030;2022-10-16T05:46:14;100235.59;;;19.12;54.88
46199;BME280;31928;52.104;10.030;2022-10-16T05:48:41;100247.31;;;19.12;54.32
46199;BME280;31928;52.104;10.030;2022-10-16T05:51:09;100248.13;;;19.13;54.72
46199;BME280;31928;52.104;10.030;2022-10-16T09:35:31;100484.84;;;22.31;49.44
46199;BME280;31928;52.104;10.030;2022-10-16T09:37:58;100480.75;;;22.33;48.48
46199;BME280;31928;52.104;10.030;2022-10-16T09:40:25;100476.91;;;22.34;48.95
46199;BME280;31928;52.104;10.030;2022-10-16T09:42:56;100483.97;;;22.35;49.40
46199;BME280;31928;52.104;10.030;2022-10-16T09:45:23;100475.84;;;22.30;48.19
46199;BME280;31928;52.104;10.030;2022-10-16T09:47:50;100498.81;;;22.24;47.68
46199;BME280;31928;52.104;10.030;2022-10-16T09:50:24;100496.63;;;22.26;48.56
46199;BME280;31928;52.104;10.030;2022-10-16T09:53:05;100505.94;;;22.20;47.76
46199;BME280;31928;52.104;10.030;2022-10-16T09:55:32;100518.22;;;22.23;48.48
46199;BME280;31928;52.104;10.030;2022-10-16T09:57:58;100516.59;;;22.22;47.47
46199;BME280;31928;52.104;10.030;2022-10-16T10:00:25;100521.78;;;22.18;46.42
46199;BME280;31928;52.104;10.030;2022-10-16T10:02:52;100502.13;;;22.21;47.10
46199;BME280;31928;52.104;10.030;2022-10-16T10:05:38;100523.94;;;22.26;46.84
46199;BME280;31928;52.104;10.030;2022-10-16T10:08:05;100510.25;;;22.31;47.89
46199;BME280;31928;52.104;10.030;2022-10-16T10:10:33;100516.78;;;22.35;47.70
46199;BME280;31928;52.104;10.030;2022-10-16T10:13:00;100519.47;;;22.40;47.83
46199;BME280;31928;52.104;10.030;2022-10-16T10:15:27;100520.31;;;22.40;47.08
46199;BME280;31928;52.104;10.030;2022-10-16T10:17:57;100520.59;;;22.39;45.88
46199;BME280;31928;52.104;10.030;2022-10-16T10:20:27;100532.31;;;22.39;45.39
46199;BME280;31928;52.104;10.030;2022-10-16T10:22:54;100528.22;;;22.42;46.58
46199;BME280;31928;52.104;10.030;2022-10-16T10:36:28;100543.59;;;22.33;46.22
46199;BME280;31928;52.104;10.030;2022-10-16T10:38:59;100543.03;;;22.31;44.87
46199;BME280;31928;52.104;10.030;2022-10-16T10:44:02;100528.25;;;22.37;45.33
46199;BME280;31928;52.104;10.030;2022-10-16T10:54:51;100544.84;;;22.45;45.09
46199;BME280;31928;52.104;10.030;2022-10-16T11:07:32;100545.59;;;22.56;46.48
46199;BME280;31928;52.104;10.030;2022-10-16T11:10:05;100559.75;;;22.58;45.84
46199;BME280;31928;52.104;10.030;2022-10-16T11:15:31;100554.25;;;22.63;44.24
46199;BME280;31928;52.104;10.030;2022-10-16T11:20:54;100559.06;;;22.76;45.15
46199;BME280;31928;52.104;10.030;2022-10-16T11:23:26;100554.59;;;22.85;46.34
46199;BME280;31928;52.104;10.030;2022-10-16T11:25:59;100560.56;;;22.92;46.39
46199;BME280;31928;52.104;10.030;2022-10-16T11:28:34;100558.84;;;23.00;44.80
46199;BME280;31928;52.104;10.030;2022-10-16T11:31:11;100547.78;;;23.10;44.90
46199;BME280;31928;52.104;10.030;2022-10-16T11:33:41;100557.84;;;23.20;44.50
46199;BME280;31928;52.104;10.030;2022-10-16T11:41:51;100573.66;;;23.46;44.35
46199;BME280;31928;52.104;10.030;2022-10-16T11:46:50;100576.78;;;23.58;44.72
46199;BME280;31928;52.104;10.030;2022-10-16T11:49:38;100575.38;;;23.60;44.15
46199;BME280;31928;52.104;10.030;2022-10-16T11:52:15;100582.75;;;23.65;44.70
46199;BME280;31928;52.104;10.030;2022-10-16T11:57:32;100573.91;;;23.73;44.27
46199;BME280;31928;52.104;10.030;2022-10-16T12:07:47;100579.44;;;24.10;45.54
46199;BME280;31928;52.104;10.030;2022-10-16T12:10:18;100586.69;;;24.19;43.09
46199;BME280;31928;52.104;10.030;2022-10-16T12:12:52;100582.38;;;24.31;42.51
46199;BME280;31928;52.104;10.030;2022-10-16T16:19:53;100736.81;;;25.50;42.55
46199;BME280;31928;52.104;10.030;2022-10-16T16:22:20;100746.47;;;25.48;42.50
46199;BME280;31928;52.104;10.030;2022-10-16T16:24:46;100750.13;;;25.43;42.26
46199;BME280;31928;52.104;10.030;2022-10-16T16:27:12;100763.13;;;25.38;42.40
46199;BME280;31928;52.104;10.030;2022-10-16T16:29:39;100765.97;;;25.33;42.03
46199;BME280;31928;52.104;10.030;2022-10-16T16:32:06;100753.72;;;25.26;42.31
46199;BME280;31928;52.104;10.030;2022-10-16T16:34:32;100744.31;;;25.13;41.54
46199;BME280;31928;52.104;10.030;2022-10-16T16:36:59;100745.28;;;25.04;41.91
46199;BME280;31928;52.104;10.030;2022-10-16T16:39:25;100746.03;;;24.91;42.16
46199;BME280;31928;52.104;10.030;2022-10-16T16:41:52;100761.00;;;24.80;42.44
46199;BME280;31928;52.104;10.030;2022-10-16T16:44:18;100765.00;;;24.69;42.32
46199;BME280;31928;52.104;10.030;2022-10-16T16:46:45;100759.66;;;24.59;42.22
46199;BME280;31928;52.104;10.030;2022-10-16T16:49:12;100766.38;;;24.48;42.29
46199;BME280;31928;52.104;10.030;2022-10-16T16:51:39;100765.94;;;24.36;42.31
46199;BME280;31928;52.104;10.030;2022-10-16T16:54:06;100770.53;;;24.22;42.50
46199;BME280;31928;52.104;10.030;2022-10-16T16:56:33;100778.91;;;24.08;42.28
46199;BME280;31928;52.104;10.030;2022-10-16T16:59:00;100790.31;;;23.91;42.31
46199;BME280;31928;52.104;10.030;2022-10-16T17:01:27;100795.66;;;23.78;42.72
46199;BME280;31928;52.104;10.030;2022-10-16T17:03:55;100779.88;;;23.65;42.63
46199;BME280;31928;52.104;10.030;2022-10-16T17:06:23;100775.06;;;23.52;43.17
46199;BME280;31928;52.104;10.030;2022-10-16T17:08:50;100778.97;;;23.41;43.02
46199;BME280;31928;52.104;10.030;2022-10-16T17:11:18;100786.16;;;23.32;43.43
46199;BME280;31928;52.104;10.030;2022-10-16T17:13:45;100797.72;;;23.24;43.71
46199;BME280;31928;52.104;10.030;2022-10-16T17:16:15;100806.25;;;23.18;43.86
46199;BME280;31928;52.104;10.030;2022-10-16T17:18:42;100804.41;;;23.13;43.98
46199;BME280;31928;52.104;10.030;2022-10-16T17:21:09;100808.78;;;23.09;44.07
46199;BME280;31928;52.104;10.030;2022-10-16T17:23:36;100788.03;;;23.03;43.78
46199;BME280;31928;52.104;10.030;2022-10-16T17:26:06;100789.13;;;22.97;43.85
46199;BME280;31928;52.104;10.030;2022-10-16T17:28:33;100801.22;;;22.92;43.85
46199;BME280;31928;52.104;10.030;2022-10-16T17:31:34;100809.19;;;22.83;43.35
46199;BME280;31928;52.104;10.030;2022-10-16T17:33:56;100815.56;;;22.69;43.72
46199;BME280;31928;52.104;10.030;2022-10-16T17:36:26;100819.97;;;22.60;44.03
46199;BME280;31928;52.104;10.030;2022-10-16T17:38:59;100821.66;;;22.51;43.82
46199;BME280;31928;52.104;10.030;2022-10-16T17:41:26;100821.97;;;22.39;43.65
46199;BME280;31928;52.104;10.030;2022-10-16T17:43:53;100821.72;;;22.31;43.91
46199;BME280;31928;52.104;10.030;2022-10-16T17:46:20;100828.81;;;22.22;44.20
46199;BME280;31928;52.104;10.030;2022-10-16T17:48:48;100825.84;;;22.14;45.04
46199;BME280;31928;52.104;10.030;2022-10-16T17:51:17;100828.88;;;22.07;45.10
46199;BME280;31928;52.104;10.030;2022-10-16T17:53:46;100837.34;;;22.01;45.26
46199;BME280;31928;52.104;10.030;2022-10-16T17:56:13;100839.53;;;21.99;45.54
46199;BME280;31928;52.104;10.030;2022-10-16T17:58:40;100832.97;;;21.95;45.78
46199;BME280;31928;52.104;10.030;2022-10-16T18:03:39;100822.63;;;21.92;45.04
46199;BME280;31928;52.104;10.030;2022-10-16T18:06:05;100832.47;;;21.88;45.29
46199;BME280;31928;52.104;10.030;2022-10-16T18:08:32;100830.25;;;21.85;45.16
46199;BME280;31928;52.104;10.030;2022-10-16T18:11:02;100840.94;;;21.81;45.39
46199;BME280;31928;52.104;10.030;2022-10-16T18:13:29;100840.94;;;21.76;45.40
46199;BME280;31928;52.104;10.030;2022-10-16T18:15:59;100853.75;;;21.71;45.55
46199;BME280;31928;52.104;10.030;2022-10-16T18:18:26;100856.22;;;21.68;45.94
46199;BME280;31928;52.104;10.030;2022-10-16T18:20:58;100846.09;;;21.63;46.25
46199;BME280;31928;52.104;10.030;2022-10-16T18:23:25;100850.75;;;21.63;45.92
46199;BME280;31928;52.104;10.030;2022-10-16T18:25:51;100845.84;;;21.60;45.84
46199;BME280;31928;52.104;10.030;2022-10-16T18:28:18;100859.78;;;21.58;46.07
46199;BME280;31928;52.104;10.030;2022-10-16T18:30:45;100859.22;;;21.56;46.12
46199;BME280;31928;52.104;10.030;2022-10-16T18:33:11;100854.84;;;21.55;46.18
46199;BME280;31928;52.104;10.030;2022-10-16T18:35:38;100862.75;;;21.52;46.09
46199;BME280;31928;52.104;10.030;2022-10-16T18:38:05;100863.84;;;21.51;46.31
46199;BME280;31928;52.104;10.030;2022-10-16T18:40:34;100858.88;;;21.48;46.32
46199;BME280;31928;52.104;10.030;2022-10-16T18:43:00;100858.63;;;21.44;46.53
46199;BME280;31928;52.104;10.030;2022-10-16T18:45:26;100871.72;;;21.42;46.09
46199;BME280;31928;52.104;10.030;2022-10-16T18:47:53;100873.06;;;21.40;46.42
46199;BME280;31928;52.104;10.030;2022-10-16T18:50:20;100859.41;;;21.35;46.29
46199;BME280;31928;52.104;10.030;2022-10-16T18:52:47;100874.19;;;21.34;46.49
46199;BME280;31928;52.104;10.030;2022-10-16T18:55:14;100862.13;;;21.30;46.01
46199;BME280;31928;52.104;10.030;2022-10-16T18:57:40;100863.78;;;21.26;46.14
46199;BME280;31928;52.104;10.030;2022-10-16T19:00:07;100866.25;;;21.22;46.75
46199;BME280;31928;52.104;10.030;2022-10-16T19:02:33;100874.66;;;21.21;46.80
46199;BME280;31928;52.104;10.030;2022-10-16T19:05:20;100876.59;;;21.20;46.93
46199;BME280;31928;52.104;10.030;2022-10-16T19:07:46;100876.88;;;21.19;47.01
46199;BME280;31928;52.104;10.030;2022-10-16T19:10:13;100870.59;;;21.18;46.79
46199;BME280;31928;52.104;10.030;2022-10-16T19:12:40;100876.88;;;21.19;47.22
46199;BME280;31928;52.104;10.030;2022-10-16T19:15:07;100883.41;;;21.18;47.08
46199;BME280;31928;52.104;10.030;2022-10-16T19:17:33;100882.31;;;21.19;47.08
46199;BME280;31928;52.104;10.030;2022-10-16T19:20:02;100899.50;;;21.19;46.61
46199;BME280;31928;52.104;10.030;2022-10-16T19:22:29;100884.47;;;21.17;46.49
46199;BME280;31928;52.104;10.030;2022-10-16T19:25:16;100891.28;;;21.14;47.03
46199;BME280;31928;52.104;10.030;2022-10-16T19:27:42;100894.84;;;21.10;46.58
46199;BME280;31928;52.104;10.030;2022-10-16T19:30:09;100899.19;;;21.06;46.61
46199;BME280;31928;52.104;10.030;2022-10-16T19:32:35;100891.00;;;21.01;46.24
46199;BME280;31928;52.104;10.030;2022-10-16T19:35:02;100893.16;;;20.94;46.70
46199;BME280;31928;52.104;10.030;2022-10-16T19:37:28;100898.59;;;20.89;47.11
46199;BME280;31928;52.104;10.030;2022-10-16T19:39:55;100892.84;;;20.86;46.93
46199;BME280;31928;52.104;10.030;2022-10-16T19:42:21;100897.19;;;20.82;46.75
46199;BME280;31928;52.104;10.030;2022-10-16T19:44:48;100902.34;;;20.78;47.03
46199;BME280;31928;52.104;10.030;2022-10-16T19:47:14;100901.25;;;20.74;47.23
46199;BME280;31928;52.104;10.030;2022-10-16T19:49:43;100901.19;;;20.69;46.99
46199;BME280;31928;52.104;10.030;2022-10-16T19:52:10;100899.00;;;20.66;46.81
46199;BME280;31928;52.104;10.030;2022-10-16T19:54:36;100915.06;;;20.63;47.20
46199;BME280;31928;52.104;10.030;2022-10-16T19:57:04;100894.59;;;20.60;47.13
46199;BME280;31928;52.104;10.030;2022-10-16T19:59:30;100895.13;;;20.57;47.41
46199;BME280;31928;52.104;10.030;2022-10-16T20:01:56;100890.22;;;20.54;47.01
46199;BME280;31928;52.104;10.030;2022-10-16T20:04:23;100902.47;;;20.52;47.32
46199;BME280;31928;52.104;10.030;2022-10-16T20:06:50;100913.06;;;20.49;47.79
46199;BME280;31928;52.104;10.030;2022-10-16T20:09:16;100921.78;;;20.46;47.44
46199;BME280;31928;52.104;10.030;2022-10-16T20:11:42;100918.50;;;20.44;47.33
46199;BME280;31928;52.104;10.030;2022-10-16T20:14:09;100916.84;;;20.43;47.41
46199;BME280;31928;52.104;10.030;2022-10-16T20:16:35;100914.91;;;20.38;47.43
46199;BME280;31928;52.104;10.030;2022-10-16T20:19:02;100924.44;;;20.36;47.10
46199;BME280;31928;52.104;10.030;2022-10-16T20:21:30;100928.78;;;20.32;46.93
46199;BME280;31928;52.104;10.030;2022-10-16T20:23:58;100927.09;;;20.26;47.28
46199;BME280;31928;52.104;10.030;2022-10-16T20:26:25;100907.97;;;20.21;47.13
46199;BME280;31928;52.104;10.030;2022-10-16T20:28:52;100906.34;;;20.15;48.21
46199;BME280;31928;52.104;10.030;2022-10-16T20:31:20;100910.13;;;20.14;48.31
46199;BME280;31928;52.104;10.030;2022-10-16T20:33:51;100911.78;;;20.15;48.18
46199;BME280;31928;52.104;10.030;2022-10-16T20:36:19;100923.22;;;20.17;48.04
46199;BME280;31928;52.104;10.030;2022-10-16T20:38:46;100931.38;;;20.17;48.07
46199;BME280;31928;52.104;10.030;2022-10-16T20:41:13;100925.13;;;20.16;48.19
46199;BME280;31928;52.104;10.030;2022-10-16T20:43:41;100922.66;;;20.15;47.87
46199;BME280;31928;52.104;10.030;2022-10-16T20:46:27;100926.19;;;20.15;47.86
46199;BME280;31928;52.104;10.030;2022-10-16T20:48:55;100927.28;;;20.14;47.87
46199;BME280;31928;52.104;10.030;2022-10-16T20:51:36;100937.88;;;20.11;47.78
46199;BME280;31928;52.104;10.030;2022-10-16T20:54:04;100941.69;;;20.10;47.72
46199;BME280;31928;52.104;10.030;2022-10-16T20:56:31;100950.63;;;20.05;47.71
46199;BME280;31928;52.104;10.030;2022-10-16T20:58:58;100941.34;;;20.01;47.61
46199;BME280;31928;52.104;10.030;2022-10-16T21:01:26;100952.19;;;19.96;47.72
46199;BME280;31928;52.104;10.030;2022-10-16T21:03:54;100947.25;;;19.93;48.02
46199;BME280;31928;52.104;10.030;2022-10-16T21:06:21;100936.91;;;19.91;47.77
46199;BME280;31928;52.104;10.030;2022-10-16T21:08:47;100932.19;;;19.86;48.05
46199;BME280;31928;52.104;10.030;2022-10-16T21:11:15;100942.53;;;19.84;48.70
46199;BME280;31928;52.104;10.030;2022-10-16T21:13:42;100934.63;;;19.83;48.92
46199;BME280;31928;52.104;10.030;2022-10-16T21:16:10;100947.13;;;19.84;48.96
46199;BME280;31928;52.104;10.030;2022-10-16T21:18:36;100947.97;;;19.84;49.73
46199;BME280;31928;52.104;10.030;2022-10-16T21:21:09;100937.94;;;19.89;49.15
46199;BME280;31928;52.104;10.030;2022-10-16T21:23:37;100941.81;;;19.93;49.25
46199;BME280;31928;52.104;10.030;2022-10-16T21:26:03;100937.75;;;19.96;49.11
46199;BME280;31928;52.104;10.030;2022-10-16T21:28:30;100927.19;;;19.99;49.24
46199;BME280;31928;52.104;10.030;2022-10-16T21:30:57;100939.44;;;20.02;49.07
46199;BME280;31928;52.104;10.030;2022-10-16T21:33:24;100942.72;;;20.04;48.95
46199;BME280;31928;52.104;10.030;2022-10-16T21:35:50;100946.00;;;20.06;49.36
46199;BME280;31928;52.104;10.030;2022-10-16T21:38:17;100946.81;;;20.06;49.44
46199;BME280;31928;52.104;10.030;2022-10-16T21:40:43;100960.16;;;20.08;49.25
46199;BME280;31928;52.104;10.030;2022-10-16T21:43:10;100967.25;;;20.09;49.06
46199;BME280;31928;52.104;10.030;2022-10-16T21:45:37;100965.94;;;20.11;49.42
46199;BME280;31928;52.104;10.030;2022-10-16T21:48:03;100961.88;;;20.14;49.41
46199;BME280;31928;52.104;10.030;2022-10-16T21:50:30;100970.59;;;20.16;49.09